Happy Valley, Nevada
Current Conditions -  °F | °C
As of 6:55 PM on Tuesday 25 Nov 2014 (Local Time) from KRNO Reporting Station
Few Clouds Few Clouds  
Wind Chill: 48°   Ceiling: Unl
Heat Index: 48°   Visibility: 10mi
Dew Point: 26°   Wind: 0mph
Humidity: 42%   Direction: NA
Pressure: 30.43"   Gusts: NA
Location:  39.5386°N, 119.749°W
Report Text: KRNO 260255Z 00000KT 10SM FEW200 09/M03 A3043 RMK AO2 SLP309 T00891033 51003
Loading
Personal Weather Stations






























Interactive Weather Map New forecast layout! Learn more

10-Day Weather Forecast

Advertisements
Track Severe Weather on mobile